createdAt,value
2023-05-09T00:00:17.569Z,562.00
2023-05-09T00:01:16.351Z,561.00
2023-05-09T00:02:17.424Z,567.00
2023-05-09T00:03:17.509Z,563.00
2023-05-09T00:04:16.521Z,561.00
2023-05-09T00:05:16.753Z,564.00
2023-05-09T00:06:17.571Z,568.00
2023-05-09T00:07:17.732Z,564.00
2023-05-09T00:08:16.651Z,560.00
2023-05-09T00:09:17.684Z,564.00
2023-05-09T00:10:17.747Z,562.00
2023-05-09T00:11:17.764Z,563.00
2023-05-09T00:12:17.795Z,567.00
2023-05-09T00:13:17.933Z,563.00
2023-05-09T00:14:16.859Z,565.00
2023-05-09T00:15:16.945Z,561.00
2023-05-09T00:16:17.980Z,563.00
2023-05-09T00:17:17.006Z,559.00
2023-05-09T00:18:18.095Z,562.00
2023-05-09T00:19:17.176Z,559.00
2023-05-09T00:20:17.123Z,558.00
2023-05-09T00:21:17.169Z,561.00
2023-05-09T00:22:17.192Z,564.00
2023-05-09T00:23:18.344Z,563.00
2023-05-09T00:24:17.282Z,564.00
2023-05-09T00:25:18.336Z,558.00
2023-05-09T00:26:17.350Z,558.00
2023-05-09T00:27:17.434Z,555.00
2023-05-09T00:28:18.450Z,567.00
2023-05-09T00:29:18.484Z,560.00
2023-05-09T00:30:18.596Z,560.00
2023-05-09T00:31:18.587Z,558.00
2023-05-09T00:32:18.691Z,562.00
2023-05-09T00:33:17.682Z,560.00
2023-05-09T00:34:17.725Z,559.00
2023-05-09T00:35:18.791Z,560.00
2023-05-09T00:36:17.822Z,565.00
2023-05-09T00:37:18.896Z,562.00
2023-05-09T00:38:18.955Z,564.00
2023-05-09T00:39:19.099Z,561.00
2023-05-09T00:40:18.027Z,564.00
2023-05-09T00:41:19.049Z,561.00
2023-05-09T00:42:19.105Z,555.00
2023-05-09T00:43:19.228Z,559.00
2023-05-09T00:44:19.191Z,561.00
2023-05-09T00:45:19.252Z,557.00
2023-05-09T00:46:19.372Z,559.00
2023-05-09T00:47:19.373Z,557.00
2023-05-09T00:48:19.374Z,563.00
2023-05-09T00:49:19.531Z,557.00
2023-05-09T00:50:19.487Z,555.00
2023-05-09T00:51:19.551Z,559.00
2023-05-09T00:52:19.613Z,555.00
2023-05-09T00:53:18.595Z,557.00
2023-05-09T00:54:19.676Z,560.00
2023-05-09T00:55:19.826Z,555.00
2023-05-09T00:56:19.746Z,555.00
2023-05-09T00:57:19.783Z,555.00
2023-05-09T00:58:19.806Z,559.00
2023-05-09T00:59:18.902Z,554.00
2023-05-09T01:00:19.945Z,556.00
2023-05-09T01:01:18.996Z,558.00
2023-05-09T01:02:19.041Z,557.00
2023-05-09T01:03:20.151Z,560.00
2023-05-09T01:04:20.120Z,554.00
2023-05-09T01:05:20.133Z,560.00
2023-05-09T01:06:20.200Z,552.00
2023-05-09T01:07:20.273Z,557.00
2023-05-09T01:08:20.296Z,557.00
2023-05-09T01:09:19.339Z,556.00
2023-05-09T01:10:19.375Z,555.00
2023-05-09T01:11:20.653Z,556.00
2023-05-09T01:12:19.486Z,555.00
2023-05-09T01:13:20.528Z,556.00
2023-05-09T01:14:19.573Z,558.00
2023-05-09T01:15:19.606Z,555.00
2023-05-09T01:16:19.669Z,555.00
2023-05-09T01:17:20.673Z,556.00
2023-05-09T01:18:20.700Z,553.00
2023-05-09T01:19:20.761Z,552.00
2023-05-09T01:20:19.863Z,553.00
2023-05-09T01:21:20.864Z,554.00
2023-05-09T01:22:20.905Z,557.00
2023-05-09T01:23:20.954Z,552.00
2023-05-09T01:24:21.082Z,552.00
2023-05-09T01:25:21.060Z,553.00
2023-05-09T01:26:21.098Z,552.00
2023-05-09T01:27:21.284Z,558.00
2023-05-09T01:28:21.230Z,555.00
2023-05-09T01:29:20.273Z,551.00
2023-05-09T01:30:21.348Z,557.00
2023-05-09T01:31:21.383Z,552.00
2023-05-09T01:32:21.529Z,553.00
2023-05-09T01:33:21.470Z,556.00
2023-05-09T01:34:21.532Z,554.00
2023-05-09T01:35:21.614Z,549.00
2023-05-09T01:36:21.657Z,551.00
2023-05-09T01:37:21.649Z,551.00
2023-05-09T01:38:21.695Z,556.00
2023-05-09T01:39:20.742Z,554.00
2023-05-09T01:40:21.783Z,548.00
2023-05-09T01:41:21.821Z,551.00
2023-05-09T01:42:21.891Z,551.00
2023-05-09T01:43:21.023Z,553.00
2023-05-09T01:44:21.951Z,553.00
2023-05-09T01:45:22.129Z,552.00
2023-05-09T01:46:22.091Z,551.00
2023-05-09T01:47:22.097Z,551.00
2023-05-09T01:48:22.149Z,555.00
2023-05-09T01:49:22.151Z,547.00
2023-05-09T01:50:21.212Z,552.00
2023-05-09T01:51:22.263Z,547.00
2023-05-09T01:52:22.310Z,545.00
2023-05-09T01:53:22.344Z,548.00
2023-05-09T01:54:21.350Z,544.00
2023-05-09T01:55:22.410Z,554.00
2023-05-09T01:56:22.477Z,551.00
2023-05-09T01:57:22.500Z,552.00
2023-05-09T01:58:21.596Z,550.00
2023-05-09T01:59:22.704Z,551.00
2023-05-09T02:00:21.635Z,551.00
2023-05-09T02:01:21.745Z,550.00
2023-05-09T02:02:22.808Z,551.00
2023-05-09T02:03:22.889Z,552.00
2023-05-09T02:04:21.823Z,549.00
2023-05-09T02:05:21.930Z,550.00
2023-05-09T02:06:21.998Z,548.00
2023-05-09T02:07:22.971Z,547.00
2023-05-09T02:08:22.005Z,548.00
2023-05-09T02:09:23.068Z,548.00
2023-05-09T02:10:22.134Z,548.00
2023-05-09T02:11:22.156Z,553.00
2023-05-09T02:12:23.222Z,545.00
2023-05-09T02:13:23.332Z,549.00
2023-05-09T02:14:23.386Z,550.00
2023-05-09T02:15:23.525Z,549.00
2023-05-09T02:16:23.430Z,550.00
2023-05-09T02:17:23.549Z,549.00
2023-05-09T02:18:23.529Z,548.00
2023-05-09T02:19:22.637Z,546.00
2023-05-09T02:20:22.657Z,547.00
2023-05-09T02:21:22.693Z,546.00
2023-05-09T02:22:23.742Z,551.00
2023-05-09T02:23:23.843Z,548.00
2023-05-09T02:24:23.857Z,544.00
2023-05-09T02:25:23.916Z,545.00
2023-05-09T02:26:22.955Z,544.00
2023-05-09T02:27:22.983Z,544.00
2023-05-09T02:28:23.072Z,546.00
2023-05-09T02:29:24.120Z,545.00
2023-05-09T02:30:24.149Z,543.00
2023-05-09T02:31:24.444Z,547.00
2023-05-09T02:32:24.249Z,550.00
2023-05-09T02:33:24.354Z,545.00
2023-05-09T02:34:24.384Z,542.00
2023-05-09T02:35:24.395Z,548.00
2023-05-09T02:36:24.457Z,545.00
2023-05-09T02:37:24.483Z,547.00
2023-05-09T02:38:24.548Z,547.00
2023-05-09T02:39:23.611Z,547.00
2023-05-09T02:40:23.641Z,541.00
2023-05-09T02:41:23.689Z,542.00
2023-05-09T02:42:24.749Z,547.00
2023-05-09T02:43:24.793Z,540.00
2023-05-09T02:44:24.872Z,545.00
2023-05-09T02:45:24.910Z,545.00
2023-05-09T02:46:24.016Z,541.00
2023-05-09T02:47:24.184Z,542.00
2023-05-09T02:48:25.065Z,544.00
2023-05-09T02:49:32.088Z,542.00
2023-05-09T02:50:25.124Z,543.00
2023-05-09T02:51:25.084Z,545.00
2023-05-09T02:52:25.087Z,544.00
2023-05-09T02:53:24.081Z,546.00
2023-05-09T02:54:25.111Z,548.00
2023-05-09T02:55:24.088Z,547.00
2023-05-09T02:56:25.093Z,546.00
2023-05-09T02:57:25.081Z,543.00
2023-05-09T02:58:25.039Z,542.00
2023-05-09T02:59:25.042Z,540.00
2023-05-09T03:00:25.029Z,544.00
2023-05-09T03:01:24.165Z,540.00
2023-05-09T03:02:25.085Z,540.00
2023-05-09T03:03:24.211Z,540.00
2023-05-09T03:04:25.020Z,541.00
2023-05-09T03:05:25.045Z,542.00
2023-05-09T03:06:25.056Z,540.00
2023-05-09T03:07:25.040Z,542.00
2023-05-09T03:08:25.017Z,546.00
2023-05-09T03:09:24.970Z,540.00
2023-05-09T03:10:24.969Z,544.00
2023-05-09T03:11:23.977Z,540.00
2023-05-09T03:12:24.996Z,540.00
2023-05-09T03:13:25.014Z,534.00
2023-05-09T03:14:24.989Z,540.00
2023-05-09T03:15:24.929Z,543.00
2023-05-09T03:16:24.998Z,542.00
2023-05-09T03:17:25.050Z,539.00
2023-05-09T03:18:25.058Z,537.00
2023-05-09T03:19:25.287Z,540.00
2023-05-09T03:20:25.169Z,537.00
2023-05-09T03:21:25.239Z,540.00
2023-05-09T03:22:25.320Z,541.00
2023-05-09T03:23:25.361Z,533.00
2023-05-09T03:24:25.423Z,543.00
2023-05-09T03:25:25.827Z,535.00
2023-05-09T03:26:25.568Z,540.00
2023-05-09T03:27:24.605Z,537.00
2023-05-09T03:28:24.671Z,539.00
2023-05-09T03:29:24.727Z,536.00
2023-05-09T03:30:25.808Z,540.00
2023-05-09T03:31:25.949Z,537.00
2023-05-09T03:32:24.946Z,542.00
2023-05-09T03:33:24.996Z,538.00
2023-05-09T03:34:26.048Z,539.00
2023-05-09T03:35:26.231Z,540.00
2023-05-09T03:36:25.217Z,537.00
2023-05-09T03:37:27.271Z,538.00
2023-05-09T03:38:25.349Z,537.00
2023-05-09T03:39:26.373Z,535.00
2023-05-09T03:40:26.444Z,537.00
2023-05-09T03:41:26.493Z,536.00
2023-05-09T03:42:26.614Z,540.00
2023-05-09T03:43:25.653Z,537.00
2023-05-09T03:44:26.698Z,533.00
2023-05-09T03:45:26.742Z,540.00
2023-05-09T03:46:26.880Z,533.00
2023-05-09T03:47:26.917Z,535.00
2023-05-09T03:48:26.978Z,539.00
2023-05-09T03:49:27.025Z,530.00
2023-05-09T03:50:27.076Z,536.00
2023-05-09T03:51:26.296Z,536.00
2023-05-09T03:52:26.227Z,532.00
2023-05-09T03:53:26.275Z,531.00
2023-05-09T03:54:27.380Z,531.00
2023-05-09T03:55:26.438Z,533.00
2023-05-09T03:56:26.413Z,535.00
2023-05-09T03:57:27.498Z,529.00
2023-05-09T03:58:27.527Z,536.00
2023-05-09T03:59:27.580Z,538.00
2023-05-09T04:00:27.664Z,536.00
2023-05-09T04:01:27.704Z,534.00
2023-05-09T04:02:26.811Z,534.00
2023-05-09T04:03:27.873Z,529.00
2023-05-09T04:04:27.816Z,533.00
2023-05-09T04:05:27.886Z,530.00
2023-05-09T04:06:28.101Z,532.00
2023-05-09T04:07:26.993Z,535.00
2023-05-09T04:08:27.051Z,531.00
2023-05-09T04:09:28.100Z,533.00
2023-05-09T04:10:27.151Z,534.00
2023-05-09T04:11:27.262Z,537.00
2023-05-09T04:12:28.278Z,529.00
2023-05-09T04:13:27.385Z,530.00
2023-05-09T04:14:28.375Z,527.00
2023-05-09T04:15:28.426Z,529.00
2023-05-09T04:16:28.518Z,527.00
2023-05-09T04:17:28.565Z,531.00
2023-05-09T04:18:27.608Z,530.00
2023-05-09T04:19:28.687Z,532.00
2023-05-09T04:20:28.736Z,528.00
2023-05-09T04:21:28.861Z,527.00
2023-05-09T04:22:28.972Z,528.00
2023-05-09T04:23:28.950Z,533.00
2023-05-09T04:24:28.984Z,531.00
2023-05-09T04:25:29.066Z,531.00
2023-05-09T04:26:28.094Z,527.00
2023-05-09T04:27:28.174Z,530.00
2023-05-09T04:28:28.240Z,524.00
2023-05-09T04:29:29.716Z,532.00
2023-05-09T04:30:29.352Z,527.00
2023-05-09T04:31:29.521Z,524.00
2023-05-09T04:32:28.562Z,526.00
2023-05-09T04:33:29.514Z,525.00
2023-05-09T04:34:28.554Z,527.00
2023-05-09T04:35:29.757Z,526.00
2023-05-09T04:36:28.684Z,529.00
2023-05-09T04:37:29.752Z,531.00
2023-05-09T04:38:28.917Z,523.00
2023-05-09T04:39:29.859Z,526.00
2023-05-09T04:40:29.925Z,530.00
2023-05-09T04:41:29.989Z,532.00
2023-05-09T04:42:30.064Z,525.00
2023-05-09T04:43:30.106Z,524.00
2023-05-09T04:44:29.181Z,524.00
2023-05-09T04:45:29.239Z,530.00
2023-05-09T04:46:30.376Z,525.00
2023-05-09T04:47:30.435Z,530.00
2023-05-09T04:48:29.423Z,522.00
2023-05-09T04:49:30.491Z,519.00
2023-05-09T04:50:30.553Z,524.00
2023-05-09T04:51:30.601Z,527.00
2023-05-09T04:52:30.701Z,527.00
2023-05-09T04:53:30.866Z,528.00
2023-05-09T04:54:30.847Z,530.00
2023-05-09T04:55:30.871Z,524.00
2023-05-09T04:56:29.935Z,524.00
2023-05-09T04:57:29.989Z,519.00
2023-05-09T04:58:30.063Z,527.00
2023-05-09T04:59:31.123Z,527.00
2023-05-09T05:00:30.207Z,528.00
2023-05-09T05:01:31.290Z,523.00
2023-05-09T05:02:31.375Z,521.00
2023-05-09T05:03:31.400Z,527.00
2023-05-09T05:04:31.465Z,521.00
2023-05-09T05:05:33.578Z,525.00
2023-05-09T05:06:31.527Z,525.00
2023-05-09T05:07:30.549Z,525.00
2023-05-09T05:08:30.552Z,525.00
2023-05-09T05:09:31.618Z,525.00
2023-05-09T05:10:30.525Z,525.00
2023-05-09T05:11:30.502Z,524.00
2023-05-09T05:12:31.504Z,525.00
2023-05-09T05:13:30.490Z,521.00
2023-05-09T05:14:31.495Z,525.00
2023-05-09T05:15:30.523Z,520.00
2023-05-09T05:16:30.466Z,524.00
2023-05-09T05:17:31.493Z,528.00
2023-05-09T05:18:30.444Z,524.00
2023-05-09T05:19:31.431Z,522.00
2023-05-09T05:20:30.458Z,524.00
2023-05-09T05:21:30.488Z,527.00
2023-05-09T05:22:32.598Z,523.00
2023-05-09T05:23:30.565Z,524.00
2023-05-09T05:24:31.620Z,522.00
2023-05-09T05:25:30.756Z,522.00
2023-05-09T05:26:30.929Z,521.00
2023-05-09T05:27:30.993Z,524.00
2023-05-09T05:28:30.904Z,526.00
2023-05-09T05:29:31.016Z,521.00
2023-05-09T05:30:32.770Z,523.00
2023-05-09T05:31:30.971Z,524.00
2023-05-09T05:32:31.942Z,522.00
2023-05-09T05:33:31.895Z,529.00
2023-05-09T05:34:31.846Z,524.00
2023-05-09T05:35:31.855Z,530.00
2023-05-09T05:36:30.830Z,520.00
2023-05-09T05:37:30.902Z,519.00
2023-05-09T05:38:31.845Z,521.00
2023-05-09T05:39:31.826Z,526.00
2023-05-09T05:40:31.804Z,519.00
2023-05-09T05:41:31.897Z,522.00
2023-05-09T05:42:30.925Z,523.00
2023-05-09T05:43:31.829Z,519.00
2023-05-09T05:44:31.770Z,527.00
2023-05-09T05:45:30.805Z,523.00
2023-05-09T05:46:30.807Z,530.00
2023-05-09T05:47:31.791Z,529.00
2023-05-09T05:48:30.830Z,533.00
2023-05-09T05:49:30.764Z,527.00
2023-05-09T05:50:31.762Z,536.00
2023-05-09T05:51:30.745Z,538.00
2023-05-09T05:52:31.726Z,542.00
2023-05-09T05:53:32.637Z,544.00
2023-05-09T05:54:31.716Z,548.00
2023-05-09T05:55:31.704Z,550.00
2023-05-09T05:56:31.702Z,556.00
2023-05-09T05:57:31.880Z,564.00
2023-05-09T05:58:31.714Z,562.00
2023-05-09T05:59:30.703Z,568.00
2023-05-09T06:00:30.706Z,581.00
2023-05-09T06:01:30.688Z,587.00
2023-05-09T06:02:31.729Z,591.00
2023-05-09T06:03:30.835Z,597.00
2023-05-09T06:04:30.835Z,612.00
2023-05-09T06:05:31.784Z,613.00
2023-05-09T06:06:31.793Z,622.00
2023-05-09T06:07:31.876Z,632.00
2023-05-09T06:08:31.972Z,639.00
2023-05-09T06:09:31.885Z,651.00
2023-05-09T06:10:30.921Z,657.00
2023-05-09T06:11:31.909Z,665.00
2023-05-09T06:12:31.904Z,684.00
2023-05-09T06:13:32.010Z,690.00
2023-05-09T06:14:30.937Z,711.00
2023-05-09T06:15:30.887Z,736.00
2023-05-09T06:16:32.172Z,752.00
2023-05-09T06:17:31.979Z,777.00
2023-05-09T06:18:32.010Z,798.00
2023-05-09T06:19:32.066Z,835.00
2023-05-09T06:20:32.108Z,835.00
2023-05-09T06:21:32.138Z,844.00
2023-05-09T06:22:31.188Z,856.00
2023-05-09T06:23:32.311Z,874.00
2023-05-09T06:24:36.182Z,876.00
2023-05-09T06:25:31.291Z,877.00
2023-05-09T06:26:32.321Z,880.00
2023-05-09T06:27:31.361Z,893.00
2023-05-09T06:28:32.341Z,909.00
2023-05-09T06:29:32.892Z,936.00
2023-05-09T06:30:31.299Z,959.00
2023-05-09T06:31:32.318Z,972.00
2023-05-09T06:32:31.373Z,961.00
2023-05-09T06:33:32.398Z,994.00
2023-05-09T06:34:32.499Z,1006.00
2023-05-09T06:35:31.592Z,994.00
2023-05-09T06:36:31.647Z,1004.00
2023-05-09T06:37:32.627Z,1021.00
2023-05-09T06:38:31.917Z,1029.00
2023-05-09T06:39:32.925Z,1048.00
2023-05-09T06:40:31.734Z,1065.00
2023-05-09T06:41:31.789Z,1066.00
2023-05-09T06:42:32.853Z,1076.00
2023-05-09T06:43:32.886Z,1204.00
2023-05-09T06:44:32.945Z,1203.00
2023-05-09T06:45:32.971Z,1206.00
2023-05-09T06:46:32.880Z,1211.00
2023-05-09T06:47:32.859Z,1207.00
2023-05-09T06:48:31.849Z,1216.00
2023-05-09T06:49:32.802Z,1220.00
2023-05-09T06:50:33.080Z,1210.00
2023-05-09T06:51:32.804Z,1222.00
2023-05-09T06:52:32.822Z,1210.00
2023-05-09T06:53:31.827Z,1206.00
2023-05-09T06:54:32.263Z,1223.00
2023-05-09T06:55:32.785Z,1222.00
2023-05-09T06:56:31.867Z,1240.00
2023-05-09T06:57:31.768Z,1264.00
2023-05-09T06:58:31.743Z,1261.00
2023-05-09T06:59:32.760Z,1256.00
2023-05-09T07:00:32.750Z,1264.00
2023-05-09T07:01:31.973Z,1260.00
2023-05-09T07:02:32.893Z,1273.00
2023-05-09T07:03:32.771Z,1262.00
2023-05-09T07:04:32.772Z,1248.00
2023-05-09T07:05:31.812Z,1248.00
2023-05-09T07:06:32.697Z,1226.00
2023-05-09T07:07:31.696Z,1221.00
2023-05-09T07:08:31.694Z,1203.00
2023-05-09T07:09:32.690Z,1196.00
2023-05-09T07:10:31.693Z,1187.00
2023-05-09T07:11:31.673Z,1182.00
2023-05-09T07:12:31.656Z,1175.00
2023-05-09T07:13:31.737Z,1165.00
2023-05-09T07:14:31.647Z,1171.00
2023-05-09T07:15:41.508Z,1160.00
2023-05-09T07:16:33.660Z,1162.00
2023-05-09T07:17:32.782Z,1161.00
2023-05-09T07:18:31.641Z,1162.00
2023-05-09T07:19:32.682Z,1154.00
2023-05-09T07:20:31.628Z,1152.00
2023-05-09T07:21:32.666Z,1134.00
2023-05-09T07:22:34.128Z,1124.00
2023-05-09T07:23:31.594Z,1125.00
2023-05-09T07:24:31.680Z,1117.00
2023-05-09T07:25:31.595Z,1110.00
2023-05-09T07:26:31.770Z,1111.00
2023-05-09T07:27:32.569Z,1088.00
2023-05-09T07:28:32.559Z,1085.00
2023-05-09T07:29:31.556Z,1079.00
2023-05-09T07:30:31.567Z,1075.00
2023-05-09T07:31:31.593Z,1064.00
2023-05-09T07:32:31.566Z,1065.00
2023-05-09T07:33:32.639Z,1053.00
2023-05-09T07:34:32.521Z,1034.00
2023-05-09T07:35:32.512Z,1032.00
2023-05-09T07:36:32.586Z,1018.00
2023-05-09T07:37:31.504Z,1040.00
2023-05-09T07:38:32.483Z,1022.00
2023-05-09T07:39:32.518Z,1011.00
2023-05-09T07:40:32.483Z,1001.00
2023-05-09T07:41:31.516Z,1005.00
2023-05-09T07:42:31.474Z,998.00
2023-05-09T07:43:32.473Z,987.00
2023-05-09T07:44:32.459Z,975.00
2023-05-09T07:45:32.477Z,975.00
2023-05-09T07:46:32.450Z,989.00
2023-05-09T07:47:32.546Z,968.00
2023-05-09T07:48:32.441Z,938.00
2023-05-09T07:49:31.536Z,935.00
2023-05-09T07:50:31.775Z,944.00
2023-05-09T07:51:31.392Z,932.00
2023-05-09T07:52:32.437Z,930.00
2023-05-09T07:53:32.390Z,938.00
2023-05-09T07:54:31.376Z,927.00
2023-05-09T07:55:32.385Z,926.00
2023-05-09T07:56:31.366Z,939.00
2023-05-09T07:57:32.349Z,928.00
2023-05-09T07:58:31.417Z,928.00
2023-05-09T07:59:32.397Z,915.00
2023-05-09T08:00:31.484Z,922.00
2023-05-09T08:01:32.586Z,914.00
2023-05-09T08:02:31.668Z,915.00
2023-05-09T08:03:31.720Z,899.00
2023-05-09T08:04:32.806Z,912.00
2023-05-09T08:05:32.925Z,907.00
2023-05-09T08:06:33.053Z,889.00
2023-05-09T08:07:32.883Z,876.00
2023-05-09T08:08:32.948Z,886.00
2023-05-09T08:09:32.999Z,893.00
2023-05-09T08:10:33.072Z,865.00
2023-05-09T08:11:32.134Z,874.00
2023-05-09T08:12:32.165Z,889.00
2023-05-09T08:13:33.236Z,853.00
2023-05-09T08:14:32.326Z,851.00
2023-05-09T08:15:33.396Z,829.00
2023-05-09T08:16:33.864Z,855.00
2023-05-09T08:17:33.632Z,851.00
2023-05-09T08:18:33.938Z,832.00
2023-05-09T08:19:33.661Z,835.00
2023-05-09T08:20:33.896Z,815.00
2023-05-09T08:21:32.720Z,800.00
2023-05-09T08:22:34.176Z,811.00
2023-05-09T08:23:33.650Z,811.00
2023-05-09T08:24:33.693Z,796.00
2023-05-09T08:25:33.746Z,764.00
2023-05-09T08:26:32.784Z,754.00
2023-05-09T08:27:33.073Z,761.00
2023-05-09T08:28:34.158Z,781.00
2023-05-09T08:29:33.907Z,775.00
2023-05-09T08:30:33.925Z,774.00
2023-05-09T08:31:34.096Z,797.00
2023-05-09T08:32:34.027Z,810.00
2023-05-09T08:33:33.048Z,797.00
2023-05-09T08:34:33.118Z,777.00
2023-05-09T08:35:34.115Z,782.00
2023-05-09T08:36:34.282Z,792.00
2023-05-09T08:37:34.184Z,780.00
2023-05-09T08:38:33.208Z,769.00
2023-05-09T08:39:33.318Z,788.00
2023-05-09T08:40:33.290Z,782.00
2023-05-09T08:41:34.284Z,776.00
2023-05-09T08:42:33.292Z,749.00
2023-05-09T08:43:34.344Z,756.00
2023-05-09T08:44:33.398Z,778.00
2023-05-09T08:45:33.818Z,789.00
2023-05-09T08:46:34.455Z,798.00
2023-05-09T08:47:33.485Z,807.00
2023-05-09T08:48:35.996Z,737.00
2023-05-09T08:49:34.815Z,1378.00
2023-05-09T08:50:34.684Z,955.00
2023-05-09T08:51:33.740Z,639.00
2023-05-09T08:52:34.803Z,586.00
2023-05-09T08:53:34.802Z,509.00
2023-05-09T08:54:33.820Z,503.00
2023-05-09T08:55:34.344Z,500.00
2023-05-09T08:56:34.861Z,485.00
2023-05-09T08:57:34.887Z,486.00
2023-05-09T08:58:34.950Z,512.00
2023-05-09T08:59:33.956Z,509.00
2023-05-09T09:00:34.927Z,517.00
2023-05-09T09:01:34.981Z,511.00
2023-05-09T09:02:35.047Z,498.00
2023-05-09T09:03:34.063Z,529.00
2023-05-09T09:04:34.147Z,502.00
2023-05-09T09:05:41.391Z,547.00
2023-05-09T09:06:35.132Z,549.00
2023-05-09T09:07:35.113Z,561.00
2023-05-09T09:08:35.211Z,579.00
2023-05-09T09:09:34.103Z,603.00
2023-05-09T09:10:34.079Z,654.00
2023-05-09T09:11:35.111Z,687.00
2023-05-09T09:12:34.057Z,679.00
2023-05-09T09:13:35.123Z,677.00
2023-05-09T09:14:34.024Z,650.00
2023-05-09T09:15:35.046Z,672.00
2023-05-09T09:16:35.071Z,693.00
2023-05-09T09:17:34.107Z,702.00
2023-05-09T09:18:35.055Z,696.00
2023-05-09T09:19:35.010Z,715.00
2023-05-09T09:20:34.009Z,710.00
2023-05-09T09:21:34.994Z,719.00
2023-05-09T09:22:36.067Z,686.00
2023-05-09T09:23:34.984Z,718.00
2023-05-09T09:24:34.087Z,721.00
2023-05-09T09:25:34.956Z,728.00
2023-05-09T09:26:35.007Z,686.00
2023-05-09T09:27:35.028Z,686.00
2023-05-09T09:28:35.141Z,680.00
2023-05-09T09:29:35.081Z,672.00
2023-05-09T09:30:35.088Z,674.00
2023-05-09T09:31:35.139Z,673.00
2023-05-09T09:32:35.242Z,691.00
2023-05-09T09:33:34.269Z,666.00
2023-05-09T09:34:35.258Z,669.00
2023-05-09T09:35:35.324Z,670.00
2023-05-09T09:36:35.377Z,666.00
2023-05-09T09:37:34.454Z,663.00
2023-05-09T09:38:35.508Z,661.00
2023-05-09T09:39:34.580Z,661.00
2023-05-09T09:40:35.772Z,660.00
2023-05-09T09:41:35.731Z,647.00
2023-05-09T09:42:35.745Z,659.00
2023-05-09T09:43:35.843Z,659.00
2023-05-09T09:44:34.891Z,666.00
2023-05-09T09:45:35.017Z,658.00
2023-05-09T09:46:36.093Z,647.00
2023-05-09T09:47:36.158Z,587.00
2023-05-09T09:48:36.068Z,556.00
2023-05-09T09:49:35.264Z,562.00
2023-05-09T09:50:36.334Z,560.00
2023-05-09T09:51:36.058Z,581.00
2023-05-09T09:52:36.232Z,600.00
2023-05-09T09:53:36.122Z,620.00
2023-05-09T09:54:35.184Z,627.00
2023-05-09T09:55:35.252Z,647.00
2023-05-09T09:56:36.496Z,746.00
2023-05-09T09:57:35.320Z,723.00
2023-05-09T09:58:36.372Z,723.00
2023-05-09T09:59:35.393Z,787.00
2023-05-09T10:00:35.510Z,826.00
2023-05-09T10:01:36.519Z,855.00
2023-05-09T10:02:35.643Z,868.00
2023-05-09T10:03:36.561Z,887.00
2023-05-09T10:04:36.433Z,912.00
2023-05-09T10:05:35.464Z,911.00
2023-05-09T10:06:36.471Z,928.00
2023-05-09T10:07:36.582Z,957.00
2023-05-09T10:08:36.472Z,960.00
2023-05-09T10:09:35.515Z,895.00
2023-05-09T10:10:36.571Z,959.00
2023-05-09T10:11:36.625Z,964.00
2023-05-09T10:12:35.792Z,1027.00
2023-05-09T10:13:36.771Z,1131.00
2023-05-09T10:14:36.833Z,1169.00
2023-05-09T10:15:49.471Z,1223.00
2023-05-09T10:16:43.569Z,1225.00
2023-05-09T10:17:37.025Z,1229.00
2023-05-09T10:18:37.127Z,1243.00
2023-05-09T10:19:35.939Z,1244.00
2023-05-09T10:20:36.989Z,1215.00
2023-05-09T10:21:38.079Z,1193.00
2023-05-09T10:22:35.828Z,1218.00
2023-05-09T10:23:36.867Z,1226.00
2023-05-09T10:24:35.803Z,1221.00
2023-05-09T10:25:36.826Z,1205.00
2023-05-09T10:26:36.833Z,1200.00
2023-05-09T10:27:36.806Z,1210.00
2023-05-09T10:28:36.972Z,1245.00
2023-05-09T10:29:36.874Z,1246.00
2023-05-09T10:30:37.311Z,1207.00
2023-05-09T10:31:37.108Z,1194.00
2023-05-09T10:32:36.979Z,1259.00
2023-05-09T10:33:36.016Z,1231.00
2023-05-09T10:34:37.010Z,1186.00
2023-05-09T10:35:37.096Z,1176.00
2023-05-09T10:36:37.114Z,1191.00
2023-05-09T10:37:36.220Z,1209.00
2023-05-09T10:38:37.268Z,1178.00
2023-05-09T10:39:36.271Z,1175.00
2023-05-09T10:40:38.667Z,1140.00
2023-05-09T10:41:37.442Z,1116.00
2023-05-09T10:42:37.457Z,1089.00
2023-05-09T10:43:37.432Z,1098.00
2023-05-09T10:44:37.588Z,1079.00
2023-05-09T10:45:37.848Z,1059.00
2023-05-09T10:46:37.444Z,1077.00
2023-05-09T10:47:37.458Z,1090.00
2023-05-09T10:48:37.422Z,1087.00
2023-05-09T10:49:37.578Z,1110.00
2023-05-09T10:50:36.467Z,1115.00
2023-05-09T10:51:37.431Z,1098.00
2023-05-09T10:52:36.484Z,1089.00
2023-05-09T10:53:37.532Z,1132.00
2023-05-09T10:54:36.460Z,1133.00
2023-05-09T10:55:37.452Z,1131.00
2023-05-09T10:56:37.478Z,1153.00
2023-05-09T10:57:36.482Z,1144.00
2023-05-09T10:58:37.482Z,1167.00
2023-05-09T10:59:37.484Z,1170.00
2023-05-09T11:00:37.669Z,1173.00
2023-05-09T11:01:37.939Z,1191.00
2023-05-09T11:02:37.729Z,1183.00
2023-05-09T11:03:36.947Z,1184.00
2023-05-09T11:04:37.781Z,1168.00
2023-05-09T11:05:37.829Z,1157.00
2023-05-09T11:06:36.873Z,1148.00
2023-05-09T11:07:37.865Z,1165.00
2023-05-09T11:08:36.970Z,1145.00
2023-05-09T11:09:37.955Z,1144.00
2023-05-09T11:10:38.243Z,1116.00
2023-05-09T11:11:36.977Z,1118.00
2023-05-09T11:12:37.952Z,1136.00
2023-05-09T11:13:38.016Z,1144.00
2023-05-09T11:14:37.015Z,1126.00
2023-05-09T11:15:38.019Z,1150.00
2023-05-09T11:16:38.283Z,1158.00
2023-05-09T11:17:38.216Z,1118.00
2023-05-09T11:18:37.228Z,1145.00
2023-05-09T11:19:38.320Z,1115.00
2023-05-09T11:20:38.350Z,1115.00
2023-05-09T11:21:38.426Z,1140.00
2023-05-09T11:22:38.491Z,1101.00
2023-05-09T11:23:38.567Z,1085.00
2023-05-09T11:24:38.613Z,1101.00
2023-05-09T11:25:38.601Z,1102.00
2023-05-09T11:26:38.694Z,1095.00
2023-05-09T11:27:38.709Z,1094.00
2023-05-09T11:28:37.752Z,1112.00
2023-05-09T11:29:38.785Z,1099.00
2023-05-09T11:30:38.826Z,1092.00
2023-05-09T11:31:38.882Z,1095.00
2023-05-09T11:32:37.929Z,1138.00
2023-05-09T11:33:38.975Z,1142.00
2023-05-09T11:34:38.992Z,1124.00
2023-05-09T11:35:39.043Z,1118.00
2023-05-09T11:36:38.384Z,1084.00
2023-05-09T11:37:38.169Z,1062.00
2023-05-09T11:38:39.228Z,1045.00
2023-05-09T11:39:38.279Z,1059.00
2023-05-09T11:40:39.347Z,1033.00
2023-05-09T11:41:39.959Z,1022.00
2023-05-09T11:42:38.508Z,1038.00
2023-05-09T11:43:39.511Z,1034.00
2023-05-09T11:44:39.525Z,1020.00
2023-05-09T11:45:39.571Z,1008.00
2023-05-09T11:46:39.526Z,1018.00
2023-05-09T11:47:39.561Z,1021.00
2023-05-09T11:48:38.628Z,1007.00
2023-05-09T11:49:39.550Z,1011.00
2023-05-09T11:50:39.613Z,1009.00
2023-05-09T11:51:38.573Z,1008.00
2023-05-09T11:52:39.164Z,1009.00
2023-05-09T11:53:38.573Z,1012.00
2023-05-09T11:54:39.577Z,1012.00
2023-05-09T11:55:39.621Z,1024.00
2023-05-09T11:56:38.669Z,1012.00
2023-05-09T11:57:39.651Z,999.00
2023-05-09T11:58:39.670Z,1014.00
2023-05-09T11:59:38.695Z,1004.00
2023-05-09T12:00:39.714Z,984.00
2023-05-09T12:01:39.787Z,987.00
2023-05-09T12:02:40.379Z,993.00
2023-05-09T12:03:39.843Z,993.00
2023-05-09T12:04:39.972Z,987.00
2023-05-09T12:05:38.839Z,984.00
2023-05-09T12:06:39.904Z,1004.00
2023-05-09T12:07:39.929Z,982.00
2023-05-09T12:08:39.954Z,986.00
2023-05-09T12:09:40.133Z,961.00
2023-05-09T12:10:40.036Z,976.00
2023-05-09T12:11:39.044Z,969.00
2023-05-09T12:12:40.165Z,981.00
2023-05-09T12:13:39.147Z,992.00
2023-05-09T12:14:39.154Z,970.00
2023-05-09T12:15:40.308Z,969.00
2023-05-09T12:16:40.300Z,975.00
2023-05-09T12:17:40.308Z,975.00
2023-05-09T12:18:39.292Z,948.00
2023-05-09T12:19:40.356Z,951.00
2023-05-09T12:20:39.415Z,949.00
2023-05-09T12:21:40.448Z,945.00
2023-05-09T12:22:46.459Z,938.00
2023-05-09T12:23:39.451Z,940.00